createdAt,value
2019-02-07T00:02:42.679Z,6.37
2019-02-07T00:07:46.182Z,7.07
2019-02-07T00:12:49.601Z,5.40
2019-02-07T00:17:53.163Z,3.40
2019-02-07T00:22:56.567Z,4.97
2019-02-07T00:27:59.970Z,4.73
2019-02-07T00:33:03.588Z,4.17
2019-02-07T00:38:07.083Z,4.57
2019-02-07T00:43:10.505Z,4.63
2019-02-07T00:48:14.160Z,3.90
2019-02-07T00:53:17.552Z,5.37
2019-02-07T00:58:21.068Z,5.17
2019-02-07T01:03:24.604Z,3.93
2019-02-07T01:08:28.012Z,4.80
2019-02-07T01:13:31.480Z,4.07
2019-02-07T01:18:35.415Z,5.43
2019-02-07T01:23:38.813Z,5.03
2019-02-07T01:28:42.310Z,5.50
2019-02-07T01:33:45.911Z,3.35
2019-02-07T01:38:49.319Z,6.47
2019-02-07T01:43:52.743Z,3.98
2019-02-07T01:48:56.315Z,5.53
2019-02-07T01:53:59.690Z,7.47
2019-02-07T01:59:03.205Z,5.77
2019-02-07T02:04:06.613Z,5.03
2019-02-07T02:09:10.088Z,6.60
2019-02-07T02:14:13.588Z,3.50
2019-02-07T02:19:17.013Z,3.40
2019-02-07T02:24:20.587Z,4.53
2019-02-07T02:29:24.850Z,2.67
2019-02-07T02:34:28.349Z,3.43
2019-02-07T02:39:31.911Z,3.75
2019-02-07T02:44:35.324Z,1.43
2019-02-07T02:49:42.282Z,4.65
2019-02-07T02:54:49.105Z,4.93
2019-02-07T02:59:52.676Z,2.70
2019-02-07T03:05:01.597Z,3.60
2019-02-07T03:10:09.607Z,3.53
2019-02-07T03:15:18.165Z,2.30
2019-02-07T03:20:27.163Z,4.03
2019-02-07T03:25:35.598Z,3.57
2019-02-07T03:30:44.165Z,2.70
2019-02-07T03:37:56.723Z,3.73
2019-02-07T03:43:05.492Z,5.70
2019-02-07T03:48:13.946Z,5.57
2019-02-07T03:53:21.557Z,2.60
2019-02-07T03:58:31.170Z,3.70
2019-02-07T04:03:39.878Z,3.13
2019-02-07T04:08:49.478Z,5.60
2019-02-07T04:14:05.019Z,3.77
2019-02-07T04:21:18.796Z,1.27
2019-02-07T04:26:27.362Z,3.47
2019-02-07T04:32:06.142Z,1.60
2019-02-07T04:37:15.721Z,3.13
2019-02-07T04:42:28.277Z,2.87
2019-02-07T04:48:09.752Z,2.87
2019-02-07T04:53:24.423Z,2.83
2019-02-07T04:58:49.101Z,2.27
2019-02-07T05:03:57.768Z,1.47
2019-02-07T05:09:10.461Z,0.97
2019-02-07T05:14:20.075Z,1.77
2019-02-07T05:19:28.661Z,1.23
2019-02-07T05:24:50.131Z,3.42
2019-02-07T05:29:57.957Z,3.77
2019-02-07T05:35:11.579Z,3.10
2019-02-07T05:40:22.308Z,2.57
2019-02-07T05:45:37.083Z,3.10
2019-02-07T05:50:44.605Z,4.23
2019-02-07T05:57:56.624Z,3.17
2019-02-07T06:03:12.202Z,1.70
2019-02-07T06:08:22.888Z,2.13
2019-02-07T06:13:30.666Z,2.73
2019-02-07T06:18:39.367Z,2.23
2019-02-07T06:23:48.150Z,3.03
2019-02-07T06:29:01.884Z,3.97
2019-02-07T06:34:10.806Z,0.90
2019-02-07T06:39:24.540Z,2.30
2019-02-07T06:44:35.229Z,3.23
2019-02-07T06:49:48.950Z,1.37
2019-02-07T06:55:13.453Z,0.77
2019-02-07T07:00:21.400Z,1.33
2019-02-07T07:05:30.459Z,4.87
2019-02-07T07:10:39.296Z,5.17
2019-02-07T07:15:53.556Z,1.97
2019-02-07T07:21:02.887Z,3.60
2019-02-07T07:28:14.268Z,4.47
2019-02-07T07:33:54.919Z,1.77
2019-02-07T07:41:05.133Z,0.70
2019-02-07T07:46:48.999Z,2.70
2019-02-07T07:54:01.269Z,6.92
2019-02-07T07:59:10.494Z,2.87
2019-02-07T08:04:19.499Z,4.13
2019-02-07T08:09:28.199Z,4.57
2019-02-07T08:14:35.846Z,3.40
2019-02-07T08:19:44.472Z,4.37
2019-02-07T08:24:52.185Z,4.30
2019-02-07T08:30:07.220Z,5.13
2019-02-07T08:35:25.216Z,1.67
2019-02-07T08:41:37.414Z,4.10
2019-02-07T08:47:18.806Z,3.43
2019-02-07T08:52:30.902Z,2.83
2019-02-07T08:57:39.524Z,4.97
2019-02-07T09:02:51.705Z,6.87
2019-02-07T09:08:12.550Z,4.33
2019-02-07T09:13:21.819Z,1.80
2019-02-07T09:20:34.755Z,1.53
2019-02-07T09:25:44.074Z,3.87
2019-02-07T09:31:57.283Z,3.08
2019-02-07T09:37:08.149Z,5.33
2019-02-07T09:42:30.909Z,6.42
2019-02-07T09:47:38.614Z,1.67
2019-02-07T09:53:03.515Z,4.03
2019-02-07T09:58:18.431Z,4.50
2019-02-07T10:03:42.514Z,3.20
2019-02-07T10:08:53.062Z,4.73
2019-02-07T10:14:01.704Z,5.53
2019-02-07T10:19:10.635Z,3.23
2019-02-07T10:26:25.339Z,2.00
2019-02-07T10:31:34.228Z,2.53
2019-02-07T10:37:18.972Z,3.00
2019-02-07T10:44:33.909Z,4.07
2019-02-07T10:49:42.429Z,5.08
2019-02-07T10:56:51.985Z,3.23
2019-02-07T11:02:00.667Z,5.33
2019-02-07T11:09:12.420Z,2.83
2019-02-07T11:14:20.993Z,4.47
2019-02-07T11:19:34.689Z,3.67
2019-02-07T11:24:43.288Z,4.27
2019-02-07T11:30:07.717Z,4.13
2019-02-07T11:37:17.544Z,5.50
2019-02-07T11:42:58.971Z,3.73
2019-02-07T11:48:07.869Z,2.43
2019-02-07T11:53:20.339Z,6.33
2019-02-07T11:58:32.080Z,3.00
2019-02-07T12:03:45.476Z,6.57
2019-02-07T12:08:53.186Z,2.30
2019-02-07T12:16:04.784Z,4.63
2019-02-07T12:21:16.448Z,4.23
2019-02-07T12:26:32.990Z,5.65
2019-02-07T12:31:41.895Z,3.67
2019-02-07T12:36:50.659Z,4.20
2019-02-07T12:41:59.311Z,4.50
2019-02-07T12:47:08.761Z,6.37
2019-02-07T12:52:18.312Z,6.10
2019-02-07T12:59:32.571Z,5.10
2019-02-07T13:04:52.084Z,4.33
2019-02-07T13:09:59.791Z,5.70
2019-02-07T13:15:08.291Z,7.03
2019-02-07T13:20:17.297Z,5.77
2019-02-07T13:25:25.936Z,6.20
2019-02-07T13:30:36.947Z,4.57
2019-02-07T13:35:51.451Z,5.87
2019-02-07T13:41:06.842Z,6.85
2019-02-07T13:46:16.778Z,4.30
2019-02-07T13:51:27.598Z,6.13
2019-02-07T13:56:36.426Z,4.83
2019-02-07T14:03:52.176Z,6.80
2019-02-07T14:09:00.963Z,6.23
2019-02-07T14:14:09.754Z,8.57
2019-02-07T14:19:18.521Z,5.43
2019-02-07T14:24:28.251Z,6.63
2019-02-07T14:29:40.795Z,5.42
2019-02-07T14:35:23.353Z,7.77
2019-02-07T14:40:31.939Z,6.63
2019-02-07T14:45:46.440Z,7.40
2019-02-07T14:50:50.504Z,6.13
2019-02-07T14:55:54.110Z,7.33
2019-02-07T15:00:57.642Z,8.83
2019-02-07T15:06:01.183Z,7.63
2019-02-07T15:11:05.133Z,5.63
2019-02-07T15:16:08.697Z,7.77
2019-02-07T15:21:12.515Z,6.93
2019-02-07T15:26:16.191Z,7.73
2019-02-07T15:31:19.924Z,8.47
2019-02-07T15:36:23.593Z,7.50
2019-02-07T15:41:27.225Z,8.30
2019-02-07T15:46:30.831Z,7.23
2019-02-07T15:51:34.448Z,6.20
2019-02-07T15:56:38.047Z,8.03
2019-02-07T16:01:49.765Z,6.70
2019-02-07T16:06:53.447Z,3.90
2019-02-07T16:11:57.055Z,7.87
2019-02-07T16:17:00.609Z,5.50
2019-02-07T16:22:04.196Z,7.20
2019-02-07T16:27:07.928Z,5.23
2019-02-07T16:32:11.600Z,8.37
2019-02-07T16:37:15.131Z,6.70
2019-02-07T16:42:18.779Z,8.10
2019-02-07T16:47:22.345Z,7.70
2019-02-07T16:52:26.048Z,7.53
2019-02-07T16:57:29.680Z,7.53
2019-02-07T17:02:33.333Z,5.17
2019-02-07T17:07:38.015Z,8.30
2019-02-07T17:12:41.632Z,10.33
2019-02-07T17:17:45.369Z,8.53
2019-02-07T17:22:50.060Z,8.57
2019-02-07T17:27:54.724Z,12.53
2019-02-07T17:32:58.614Z,9.17
2019-02-07T17:38:02.343Z,7.20
2019-02-07T17:43:06.349Z,8.03
2019-02-07T17:48:10.119Z,10.60
2019-02-07T17:53:13.788Z,7.50
2019-02-07T17:58:17.627Z,7.10
2019-02-07T18:03:21.179Z,8.23
2019-02-07T18:08:24.956Z,8.50
2019-02-07T18:13:28.711Z,4.37
2019-02-07T18:18:32.295Z,7.87
2019-02-07T18:23:35.852Z,8.20
2019-02-07T18:28:39.766Z,7.93
2019-02-07T18:33:43.685Z,7.77
2019-02-07T18:38:47.552Z,5.67
2019-02-07T18:43:52.358Z,10.30
2019-02-07T18:48:56.261Z,7.60
2019-02-07T18:53:59.980Z,9.90
2019-02-07T18:59:03.666Z,7.63
2019-02-07T19:04:07.262Z,7.17
2019-02-07T19:09:10.881Z,8.80
2019-02-07T19:14:14.556Z,7.40
2019-02-07T19:19:18.129Z,5.73
2019-02-07T19:24:21.709Z,7.85
2019-02-07T19:29:25.574Z,6.57
2019-02-07T19:34:29.545Z,7.50
2019-02-07T19:39:33.288Z,11.17
2019-02-07T19:44:37.524Z,9.93
2019-02-07T19:49:41.099Z,11.03
2019-02-07T19:54:44.676Z,9.43
2019-02-07T19:59:48.728Z,9.47
2019-02-07T20:04:52.625Z,8.23
2019-02-07T20:09:56.571Z,9.03
2019-02-07T20:15:00.207Z,10.13
2019-02-07T20:20:05.071Z,9.03
2019-02-07T20:25:09.657Z,9.70
2019-02-07T20:30:19.407Z,12.07
2019-02-07T20:35:23.540Z,10.60
2019-02-07T20:40:27.466Z,8.13
2019-02-07T20:45:31.420Z,8.00
2019-02-07T20:50:35.371Z,10.17
2019-02-07T20:55:39.590Z,10.10
2019-02-07T21:00:43.567Z,8.57
2019-02-07T21:05:47.666Z,8.80
2019-02-07T21:10:51.426Z,9.13
2019-02-07T21:15:55.368Z,10.70
2019-02-07T21:20:59.477Z,9.40
2019-02-07T21:26:03.013Z,7.97
2019-02-07T21:31:06.835Z,8.93
2019-02-07T21:36:10.980Z,8.87
2019-02-07T21:41:14.758Z,10.87
2019-02-07T21:46:18.348Z,10.23
2019-02-07T21:51:22.135Z,11.80
2019-02-07T21:56:25.960Z,9.47
2019-02-07T22:01:29.673Z,11.43
2019-02-07T22:06:33.202Z,7.83
2019-02-07T22:11:37.058Z,10.63
2019-02-07T22:16:40.637Z,11.18
2019-02-07T22:21:44.357Z,8.60
2019-02-07T22:26:48.066Z,13.27
2019-02-07T22:31:52.125Z,9.98
2019-02-07T22:36:56.153Z,11.18
2019-02-07T22:42:00.068Z,8.80
2019-02-07T22:47:03.606Z,12.30
2019-02-07T22:52:07.312Z,12.87
2019-02-07T22:57:10.756Z,10.10
2019-02-07T23:02:14.748Z,10.77
2019-02-07T23:07:18.361Z,10.57
2019-02-07T23:12:21.878Z,11.83
2019-02-07T23:17:25.552Z,10.60
2019-02-07T23:22:28.998Z,10.00
2019-02-07T23:27:32.509Z,10.90
2019-02-07T23:32:35.925Z,11.83
2019-02-07T23:37:39.316Z,10.70
2019-02-07T23:42:42.839Z,10.50
2019-02-07T23:47:46.276Z,11.27
2019-02-07T23:52:49.691Z,10.00
2019-02-07T23:57:53.149Z,10.63
